Time;durP1;ratioP1;P1;durP2;ratioP2;P2;SDS_P1;SDS_P2;PMS_P1;PMS_P2;Temp;Humidity;BMP_temperature;BMP_pressure;BME280_temperature;BME280_humidity;BME280_pressure;Samples;Min_cycle;Max_cycle;Signal;HPM_P1;HPM_P2
2023/09/30 00:01:29;;;;;;;0.43;0.43;;;14.80;99.90;;;;;;5015370;28;20026;-89
2023/09/30 00:03:55;;;;;;;0.00;0.00;;;14.80;99.90;;;;;;5015912;28;20109;-90
2023/09/30 00:06:21;;;;;;;0.00;0.00;;;14.90;99.90;;;;;;5016646;28;20104;-91
2023/09/30 00:08:47;;;;;;;0.00;0.00;;;14.90;99.90;;;;;;5026976;28;20037;-91
2023/09/30 00:11:16;;;;;;;0.70;0.65;;;14.90;99.90;;;;;;5008742;28;20080;-89
2023/09/30 00:13:42;;;;;;;0.00;0.00;;;14.50;99.90;;;;;;5014765;28;20030;-82
2023/09/30 00:16:08;;;;;;;0.28;0.28;;;14.20;99.90;;;;;;5015465;28;20018;-89
2023/09/30 00:18:34;;;;;;;0.10;0.10;;;14.10;99.90;;;;;;5015387;28;20382;-88
2023/09/30 00:20:59;;;;;;;0.10;0.10;;;14.00;99.90;;;;;;5015577;28;20386;-89
2023/09/30 00:23:25;;;;;;;0.00;0.00;;;14.20;99.90;;;;;;5015421;28;20091;-88
2023/09/30 00:25:51;;;;;;;0.10;0.10;;;14.40;99.90;;;;;;5014928;28;20030;-89
2023/09/30 00:28:17;;;;;;;0.10;0.10;;;14.50;99.90;;;;;;5015271;28;20060;-87
2023/09/30 00:30:45;;;;;;;0.00;0.00;;;14.40;99.90;;;;;;5015188;28;20425;-89
2023/09/30 00:33:11;;;;;;;0.00;0.00;;;14.50;99.90;;;;;;5014167;28;20028;-89
2023/09/30 00:35:37;;;;;;;1.55;0.88;;;14.50;99.90;;;;;;5015306;28;20022;-89
2023/09/30 00:38:03;;;;;;;0.00;0.00;;;14.30;99.90;;;;;;5015216;28;20026;-86
2023/09/30 00:40:29;;;;;;;2.00;1.85;;;14.20;99.90;;;;;;5013597;28;20030;-90
2023/09/30 00:42:58;;;;;;;0.00;0.00;;;14.30;99.90;;;;;;5014076;28;20029;-89
2023/09/30 00:45:24;;;;;;;0.00;0.00;;;14.40;99.90;;;;;;5015330;28;20037;-89
2023/09/30 00:47:51;;;;;;;0.05;0.05;;;14.20;99.90;;;;;;5013293;28;20080;-87
2023/09/30 00:50:19;;;;;;;0.00;0.00;;;14.40;99.90;;;;;;5015034;28;20100;-87
2023/09/30 00:52:46;;;;;;;0.00;0.00;;;14.40;99.90;;;;;;5000084;28;20026;-90
2023/09/30 00:55:12;;;;;;;0.00;0.00;;;14.50;99.90;;;;;;5015391;28;20034;-79
2023/09/30 00:57:39;;;;;;;0.00;0.00;;;14.30;99.90;;;;;;5014610;28;20022;-78
2023/09/30 01:00:06;;;;;;;0.10;0.10;;;14.30;99.90;;;;;;5014742;28;20112;-79
2023/09/30 01:02:32;;;;;;;0.00;0.00;;;14.20;99.90;;;;;;5014362;28;20049;-78
2023/09/30 01:04:58;;;;;;;1.05;1.05;;;14.10;99.90;;;;;;5013121;28;20054;-77
2023/09/30 01:07:24;;;;;;;0.03;0.03;;;14.10;99.90;;;;;;5013150;28;20057;-78
2023/09/30 01:09:50;;;;;;;0.10;0.10;;;14.00;99.90;;;;;;5016733;28;20065;-91
2023/09/30 01:12:17;;;;;;;0.00;0.00;;;14.00;99.90;;;;;;5018117;28;20079;-86
2023/09/30 01:14:43;;;;;;;0.10;0.10;;;14.00;99.90;;;;;;5042322;28;20034;-83
2023/09/30 01:17:13;;;;;;;0.08;0.08;;;14.00;99.90;;;;;;5029943;28;20078;-91
2023/09/30 01:19:39;;;;;;;0.00;0.00;;;14.00;99.90;;;;;;5023925;28;20033;-87
2023/09/30 01:22:05;;;;;;;0.00;0.00;;;14.00;99.90;;;;;;5014712;28;20123;-90
2023/09/30 01:24:31;;;;;;;0.00;0.00;;;14.00;99.90;;;;;;5018051;28;20109;-90
2023/09/30 01:26:57;;;;;;;0.75;0.75;;;13.90;99.90;;;;;;5018784;28;20018;-90
2023/09/30 01:29:26;;;;;;;0.00;0.00;;;14.00;99.90;;;;;;5029965;28;20441;-88
2023/09/30 01:31:52;;;;;;;0.00;0.00;;;13.90;99.90;;;;;;5031021;28;20033;-90
2023/09/30 01:34:17;;;;;;;0.00;0.00;;;13.90;99.90;;;;;;5030704;28;20037;-89
2023/09/30 01:36:44;;;;;;;0.30;0.30;;;13.70;99.90;;;;;;5018045;28;20052;-89
2023/09/30 01:39:10;;;;;;;0.00;0.00;;;13.60;99.90;;;;;;5015017;28;20026;-90
2023/09/30 01:41:40;;;;;;;0.00;0.00;;;13.40;99.90;;;;;;5017802;28;20437;-89
2023/09/30 01:44:09;;;;;;;0.00;0.00;;;13.40;99.90;;;;;;5020104;28;20037;-90
2023/09/30 01:46:37;;;;;;;0.00;0.00;;;13.50;99.90;;;;;;5019074;28;20065;-89
2023/09/30 01:49:06;;;;;;;0.00;0.00;;;13.50;99.90;;;;;;5015231;28;20479;-89
2023/09/30 01:51:32;;;;;;;0.10;0.10;;;13.60;99.90;;;;;;5015307;28;20057;-84
2023/09/30 01:53:58;;;;;;;0.00;0.00;;;13.70;99.90;;;;;;5016211;28;20053;-88
2023/09/30 01:56:25;;;;;;;0.00;0.00;;;13.80;99.90;;;;;;5021977;28;20033;-89
2023/09/30 01:58:51;;;;;;;0.00;0.00;;;13.80;99.90;;;;;;5018958;28;20032;-90
2023/09/30 02:01:17;;;;;;;0.00;0.00;;;13.70;99.90;;;;;;5040112;28;20495;-87
2023/09/30 02:03:42;;;;;;;0.00;0.00;;;13.60;99.90;;;;;;5025876;28;20025;-81
2023/09/30 02:06:08;;;;;;;0.00;0.00;;;13.60;99.90;;;;;;5025655;28;20394;-90
2023/09/30 02:08:36;;;;;;;0.00;0.00;;;13.60;99.90;;;;;;5026826;28;20128;-89
2023/09/30 02:11:05;;;;;;;0.03;0.03;;;13.50;99.90;;;;;;5017024;28;20038;-90
2023/09/30 02:13:37;;;;;;;0.00;0.00;;;13.30;99.90;;;;;;5020305;28;20030;-89
2023/09/30 02:16:04;;;;;;;0.00;0.00;;;13.20;99.90;;;;;;5025256;28;20473;-88
2023/09/30 02:18:32;;;;;;;0.10;0.10;;;13.30;99.90;;;;;;5022984;28;20026;-90
2023/09/30 02:20:59;;;;;;;0.00;0.00;;;13.40;99.90;;;;;;5020314;28;20037;-89
2023/09/30 02:23:25;;;;;;;0.10;0.10;;;13.50;99.90;;;;;;5034527;28;20028;-84
2023/09/30 02:25:51;;;;;;;0.00;0.00;;;13.40;99.90;;;;;;5035619;28;20057;-90
2023/09/30 02:28:34;;;;;;;1.75;1.08;;;13.60;99.90;;;;;;5028060;28;20031;-89
2023/09/30 02:31:00;;;;;;;0.30;0.30;;;13.90;99.90;;;;;;5023401;28;20093;-90
2023/09/30 02:33:26;;;;;;;0.10;0.10;;;13.90;99.90;;;;;;5022769;28;20044;-90
2023/09/30 02:35:59;;;;;;;0.00;0.00;;;13.80;99.90;;;;;;5027608;28;20088;-90
2023/09/30 02:38:25;;;;;;;0.10;0.10;;;13.90;99.90;;;;;;5027287;28;20029;-88
2023/09/30 02:40:51;;;;;;;0.00;0.00;;;13.90;99.90;;;;;;5025257;28;20053;-90
2023/09/30 02:43:17;;;;;;;0.10;0.10;;;13.90;99.90;;;;;;5041971;28;20025;-90
2023/09/30 02:45:44;;;;;;;0.00;0.00;;;14.00;99.90;;;;;;5024289;28;20065;-90
2023/09/30 02:48:13;;;;;;;0.30;0.30;;;14.10;99.90;;;;;;5023959;28;20014;-86
2023/09/30 02:50:44;;;;;;;0.10;0.10;;;14.00;99.90;;;;;;5025372;28;20037;-88
2023/09/30 02:53:12;;;;;;;0.28;0.28;;;14.00;99.90;;;;;;5025461;28;20026;-90
2023/09/30 02:55:39;;;;;;;0.00;0.00;;;14.00;99.90;;;;;;5026921;28;20034;-89
2023/09/30 02:58:05;;;;;;;0.00;0.00;;;14.00;99.90;;;;;;5014619;28;20049;-90
2023/09/30 03:00:32;;;;;;;0.20;0.20;;;14.10;99.90;;;;;;5023986;28;20033;-89
2023/09/30 03:03:04;;;;;;;0.10;0.10;;;14.00;99.90;;;;;;5038990;28;20022;-89
2023/09/30 03:05:35;;;;;;;0.10;0.10;;;14.10;99.90;;;;;;5025814;28;20038;-90
2023/09/30 03:08:05;;;;;;;0.00;0.00;;;14.00;99.90;;;;;;5033428;28;20022;-90
2023/09/30 03:10:32;;;;;;;0.00;0.00;;;14.20;99.90;;;;;;5030810;28;20076;-90
2023/09/30 03:13:01;;;;;;;0.00;0.00;;;14.00;99.90;;;;;;5028543;28;20033;-90
2023/09/30 03:15:30;;;;;;;0.05;0.05;;;14.10;99.90;;;;;;5031270;28;20026;-90
2023/09/30 03:17:57;;;;;;;2.75;0.85;;;14.00;99.90;;;;;;5035818;28;20471;-89
2023/09/30 03:20:25;;;;;;;0.10;0.10;;;14.00;99.90;;;;;;5009662;28;20034;-90
2023/09/30 03:22:51;;;;;;;0.00;0.00;;;14.00;99.90;;;;;;5018874;28;20062;-87
2023/09/30 03:25:20;;;;;;;0.00;0.00;;;13.80;99.90;;;;;;5030152;28;20046;-90
2023/09/30 03:27:46;;;;;;;0.25;0.20;;;13.80;99.90;;;;;;5030812;28;20022;-88
2023/09/30 03:30:16;;;;;;;0.00;0.00;;;13.70;99.90;;;;;;5026159;28;20030;-90
2023/09/30 03:32:45;;;;;;;0.45;0.45;;;13.70;99.90;;;;;;5026374;28;20033;-91
2023/09/30 03:35:21;;;;;;;0.30;0.30;;;13.60;99.90;;;;;;5023208;28;20041;-89
2023/09/30 03:37:47;;;;;;;0.10;0.10;;;14.00;99.90;;;;;;5023771;28;20029;-90
2023/09/30 03:40:19;;;;;;;0.00;0.00;;;13.70;99.90;;;;;;5019463;28;20459;-90
2023/09/30 03:42:49;;;;;;;0.10;0.10;;;13.50;99.90;;;;;;5041083;28;20014;-91
2023/09/30 03:45:20;;;;;;;0.00;0.00;;;13.50;99.90;;;;;;5036079;28;20034;-91
2023/09/30 03:47:49;;;;;;;0.20;0.20;;;13.70;99.90;;;;;;5021647;28;20030;-90
2023/09/30 03:50:15;;;;;;;1.25;0.90;;;14.00;99.90;;;;;;5023012;28;20033;-91
2023/09/30 03:52:44;;;;;;;0.00;0.00;;;13.70;99.90;;;;;;5022403;28;20022;-91
2023/09/30 03:55:12;;;;;;;0.70;0.70;;;13.70;99.90;;;;;;5024182;28;20029;-90
2023/09/30 03:57:38;;;;;;;0.10;0.10;;;13.70;99.90;;;;;;5023890;28;20030;-91
2023/09/30 04:00:08;;;;;;;1.55;1.48;;;13.80;99.90;;;;;;5022682;28;20030;-91
2023/09/30 04:02:42;;;;;;;0.10;0.10;;;13.70;99.90;;;;;;5022863;28;20088;-91
2023/09/30 04:05:11;;;;;;;0.08;0.08;;;13.70;99.90;;;;;;5022761;28;20504;-91
2023/09/30 04:07:37;;;;;;;1.30;1.30;;;13.60;99.90;;;;;;5019721;28;20037;-91
2023/09/30 04:10:04;;;;;;;0.10;0.10;;;13.80;99.90;;;;;;5034138;28;20038;-91
2023/09/30 04:12:32;;;;;;;0.10;0.10;;;13.90;99.90;;;;;;5017517;28;20463;-92
2023/09/30 04:14:58;;;;;;;0.10;0.10;;;13.90;99.90;;;;;;5019140;28;20501;-91
2023/09/30 04:17:24;;;;;;;0.10;0.10;;;13.90;99.90;;;;;;5017949;28;20021;-92
2023/09/30 04:19:53;;;;;;;0.00;0.00;;;13.80;99.90;;;;;;5017911;28;20033;-87
2023/09/30 04:22:19;;;;;;;0.00;0.00;;;13.70;99.90;;;;;;5017755;28;20102;-91
2023/09/30 04:24:45;;;;;;;0.38;0.38;;;13.60;99.90;;;;;;5017494;28;20069;-91
2023/09/30 04:27:11;;;;;;;0.00;0.00;;;13.50;99.90;;;;;;5017444;28;20036;-91
2023/09/30 04:29:37;;;;;;;0.10;0.10;;;13.60;99.90;;;;;;5032221;28;20112;-88
2023/09/30 04:32:04;;;;;;;0.10;0.10;;;13.40;99.90;;;;;;5016665;28;20113;-90
2023/09/30 04:34:31;;;;;;;0.08;0.08;;;13.50;99.90;;;;;;5015971;28;20030;-91
2023/09/30 04:36:56;;;;;;;0.17;0.17;;;13.50;99.90;;;;;;5017233;28;20033;-90
2023/09/30 04:39:22;;;;;;;0.00;0.00;;;13.50;99.90;;;;;;5016771;28;20141;-89
2023/09/30 04:41:48;;;;;;;0.05;0.05;;;13.60;99.90;;;;;;5016272;28;20083;-89
2023/09/30 04:44:14;;;;;;;0.25;0.25;;;13.70;99.90;;;;;;5016393;28;20034;-90
2023/09/30 04:46:40;;;;;;;2.85;1.38;;;13.50;99.90;;;;;;5018940;28;20036;-91
2023/09/30 04:49:09;;;;;;;0.03;0.03;;;13.30;99.90;;;;;;5018400;28;20022;-89
2023/09/30 04:51:35;;;;;;;0.10;0.10;;;13.20;99.90;;;;;;5021678;28;20546;-91
2023/09/30 04:54:02;;;;;;;0.10;0.10;;;13.10;99.90;;;;;;5019394;28;20105;-92
2023/09/30 04:56:28;;;;;;;0.28;0.28;;;13.30;99.90;;;;;;5018091;28;20065;-91
2023/09/30 04:58:54;;;;;;;0.10;0.10;;;13.40;99.90;;;;;;5019252;28;20041;-88
2023/09/30 05:01:19;;;;;;;0.30;0.30;;;13.60;99.90;;;;;;5034992;28;20022;-81
2023/09/30 05:03:49;;;;;;;0.00;0.00;;;13.60;99.90;;;;;;5036819;28;20033;-90
2023/09/30 05:06:15;;;;;;;0.00;0.00;;;13.70;99.90;;;;;;5018216;28;20046;-91
2023/09/30 05:08:41;;;;;;;0.10;0.10;;;13.50;99.90;;;;;;5014559;28;20030;-91
2023/09/30 05:11:07;;;;;;;0.20;0.20;;;13.70;99.90;;;;;;5016360;28;20035;-91
2023/09/30 05:13:34;;;;;;;0.10;0.10;;;13.70;99.90;;;;;;5017525;28;20096;-88
2023/09/30 05:15:59;;;;;;;0.00;0.00;;;14.00;99.90;;;;;;5018257;28;20029;-89
2023/09/30 05:18:25;;;;;;;0.30;0.30;;;13.60;99.90;;;;;;5019382;28;20449;-91
2023/09/30 05:20:51;;;;;;;1.80;1.02;;;13.40;99.90;;;;;;5037084;28;20033;-91
2023/09/30 05:23:17;;;;;;;2.47;0.95;;;13.20;99.90;;;;;;5020310;28;20086;-89
2023/09/30 05:25:43;;;;;;;0.30;0.30;;;13.20;99.90;;;;;;5017317;28;20116;-88
2023/09/30 05:28:11;;;;;;;0.38;0.38;;;13.40;99.90;;;;;;5014646;28;20543;-90
2023/09/30 05:30:37;;;;;;;0.10;0.10;;;13.30;99.90;;;;;;5016339;28;20076;-86
2023/09/30 05:33:03;;;;;;;0.10;0.10;;;13.50;99.90;;;;;;5016759;28;20057;-89
2023/09/30 05:35:31;;;;;;;0.10;0.10;;;13.50;99.90;;;;;;5019275;28;20018;-90
2023/09/30 05:38:00;;;;;;;0.20;0.20;;;13.40;99.90;;;;;;5019658;28;20084;-90
2023/09/30 05:40:26;;;;;;;0.28;0.28;;;13.30;99.90;;;;;;5016970;28;20044;-85
2023/09/30 05:42:54;;;;;;;0.10;0.10;;;13.30;99.90;;;;;;5013782;28;20109;-86
2023/09/30 05:45:23;;;;;;;0.10;0.10;;;13.50;99.90;;;;;;5018120;28;20089;-90
2023/09/30 05:47:49;;;;;;;0.10;0.10;;;13.50;99.90;;;;;;5019846;28;20029;-87
2023/09/30 05:50:16;;;;;;;0.10;0.10;;;13.60;99.90;;;;;;5017218;28;20038;-89
2023/09/30 05:52:43;;;;;;;0.10;0.10;;;13.50;99.90;;;;;;5011991;28;20054;-86
2023/09/30 05:55:09;;;;;;;0.10;0.10;;;13.40;99.90;;;;;;5013980;28;20552;-90
2023/09/30 05:57:35;;;;;;;0.43;0.43;;;13.50;99.90;;;;;;5003266;28;20022;-91
2023/09/30 06:00:11;;;;;;;0.00;0.00;;;13.50;99.90;;;;;;5013521;28;20022;-88
2023/09/30 06:02:38;;;;;;;0.10;0.10;;;13.50;99.90;;;;;;5014191;28;20030;-91
2023/09/30 06:05:04;;;;;;;0.10;0.10;;;13.50;99.90;;;;;;5012951;28;20108;-86
2023/09/30 06:07:31;;;;;;;0.10;0.10;;;13.40;99.90;;;;;;5013900;28;20049;-91
2023/09/30 06:09:57;;;;;;;0.00;0.00;;;13.40;99.90;;;;;;5013802;28;20532;-88
2023/09/30 06:12:22;;;;;;;0.10;0.10;;;13.70;99.90;;;;;;5012415;28;20397;-87
2023/09/30 06:14:48;;;;;;;0.10;0.10;;;13.50;99.90;;;;;;5012942;28;20030;-83
2023/09/30 06:17:14;;;;;;;0.05;0.05;;;13.60;99.90;;;;;;5012963;28;20021;-89
2023/09/30 06:19:40;;;;;;;0.10;0.10;;;13.60;99.90;;;;;;5029569;28;20022;-76
2023/09/30 06:22:08;;;;;;;0.10;0.10;;;13.70;99.90;;;;;;5030140;28;20022;-87
2023/09/30 06:24:34;;;;;;;0.10;0.10;;;13.70;99.90;;;;;;5016906;28;20034;-84
2023/09/30 06:27:00;;;;;;;0.00;0.00;;;13.90;99.90;;;;;;5024953;28;20048;-85
2023/09/30 06:29:26;;;;;;;0.03;0.03;;;14.00;99.90;;;;;;5019790;28;20441;-84
2023/09/30 06:31:52;;;;;;;0.10;0.10;;;14.20;99.90;;;;;;5014956;28;20466;-90
2023/09/30 06:34:18;;;;;;;0.20;0.20;;;14.10;99.90;;;;;;5013844;28;20050;-87
2023/09/30 06:36:44;;;;;;;0.88;0.80;;;13.90;99.90;;;;;;5014138;28;20036;-83
2023/09/30 06:39:10;;;;;;;1.63;1.52;;;13.90;99.90;;;;;;5010301;28;20430;-82
2023/09/30 06:41:36;;;;;;;4.15;1.50;;;13.80;99.90;;;;;;5011726;28;20037;-85
2023/09/30 06:44:03;;;;;;;0.20;0.20;;;13.60;99.90;;;;;;5011031;28;20126;-84
2023/09/30 06:46:29;;;;;;;0.55;0.55;;;13.80;99.90;;;;;;5012195;28;20108;-89
2023/09/30 06:48:55;;;;;;;1.58;1.48;;;14.00;99.90;;;;;;5012356;28;20462;-86
2023/09/30 06:51:21;;;;;;;14.25;2.40;;;13.90;99.90;;;;;;5011786;28;20064;-88
2023/09/30 06:53:46;;;;;;;2.03;0.90;;;13.80;99.90;;;;;;5012053;28;20053;-89
2023/09/30 06:56:15;;;;;;;0.52;0.52;;;13.90;99.90;;;;;;5012199;28;20034;-90
2023/09/30 06:58:41;;;;;;;9.95;4.50;;;14.00;99.90;;;;;;5012356;28;20030;-88
2023/09/30 07:01:07;;;;;;;5.07;1.60;;;14.10;99.90;;;;;;5012565;28;20029;-90
2023/09/30 07:03:33;;;;;;;0.40;0.40;;;14.20;99.90;;;;;;5012245;28;20092;-86
2023/09/30 07:06:00;;;;;;;0.10;0.10;;;14.20;99.90;;;;;;5012325;28;20053;-88
2023/09/30 07:08:29;;;;;;;0.10;0.10;;;14.30;99.90;;;;;;5010785;28;20033;-90
2023/09/30 07:10:56;;;;;;;2.65;0.52;;;14.20;99.90;;;;;;5012432;28;20030;-89
2023/09/30 07:13:22;;;;;;;4.93;2.97;;;14.50;99.90;;;;;;5012422;28;20045;-90
2023/09/30 07:15:48;;;;;;;3.85;1.02;;;14.30;99.90;;;;;;5012460;28;20030;-89
2023/09/30 07:18:14;;;;;;;1.17;1.13;;;14.40;99.90;;;;;;5012229;28;20034;-87
2023/09/30 07:20:39;;;;;;;6.82;5.05;;;14.20;99.90;;;;;;5012778;28;20034;-89
2023/09/30 07:23:05;;;;;;;14.40;2.65;;;14.20;99.90;;;;;;5012793;28;20067;-90
2023/09/30 07:25:34;;;;;;;3.10;1.88;;;14.30;99.90;;;;;;5012061;28;20038;-90
2023/09/30 07:28:01;;;;;;;2.17;1.92;;;14.40;99.90;;;;;;5013202;28;20034;-90
2023/09/30 07:30:27;;;;;;;2.67;2.33;;;14.70;99.90;;;;;;5011131;28;20037;-87
2023/09/30 07:32:53;;;;;;;2.67;0.95;;;14.70;99.90;;;;;;5012043;28;20065;-90
2023/09/30 07:35:19;;;;;;;1.17;1.00;;;14.60;99.90;;;;;;5013118;28;20050;-89
2023/09/30 07:37:45;;;;;;;1.20;1.10;;;14.70;99.90;;;;;;5013055;28;20022;-88
2023/09/30 07:40:11;;;;;;;0.38;0.38;;;14.90;99.90;;;;;;5019414;28;20387;-78
2023/09/30 07:42:37;;;;;;;6.00;3.50;;;15.10;99.90;;;;;;5011036;28;20038;-79
2023/09/30 07:45:04;;;;;;;0.17;0.17;;;15.00;99.90;;;;;;5010076;28;20040;-79
2023/09/30 07:47:31;;;;;;;3.10;0.65;;;15.10;99.90;;;;;;5011044;28;20037;-78
2023/09/30 07:49:56;;;;;;;3.05;2.80;;;15.30;99.90;;;;;;5011219;28;20049;-81
2023/09/30 07:52:22;;;;;;;0.10;0.10;;;15.30;99.90;;;;;;5014130;28;20439;-78
2023/09/30 07:54:48;;;;;;;1.50;1.15;;;15.40;99.90;;;;;;5014331;28;20481;-80
2023/09/30 07:57:14;;;;;;;0.80;0.73;;;15.40;99.90;;;;;;5014622;28;20406;-80
2023/09/30 07:59:40;;;;;;;1.17;1.17;;;15.40;99.90;;;;;;5015163;28;20061;-80
2023/09/30 08:02:06;;;;;;;5.00;1.05;;;15.50;99.90;;;;;;5014476;28;20061;-77
2023/09/30 08:04:32;;;;;;;0.15;0.15;;;15.50;99.90;;;;;;5014470;28;20513;-80
2023/09/30 08:06:58;;;;;;;0.10;0.10;;;15.50;99.90;;;;;;5014030;28;20053;-79
2023/09/30 08:09:24;;;;;;;10.07;4.38;;;15.60;99.90;;;;;;5013869;28;20026;-79
2023/09/30 08:11:56;;;;;;;0.22;0.22;;;15.40;99.90;;;;;;5014554;28;20049;-77
2023/09/30 08:14:22;;;;;;;0.73;0.73;;;15.30;99.90;;;;;;5014658;28;20505;-80
2023/09/30 08:16:49;;;;;;;0.15;0.15;;;15.30;99.90;;;;;;5014350;28;20015;-80
2023/09/30 08:19:15;;;;;;;2.80;2.17;;;15.40;99.90;;;;;;5014213;28;20363;-80
2023/09/30 08:21:41;;;;;;;0.00;0.00;;;15.50;99.90;;;;;;5014139;28;20036;-80
2023/09/30 08:24:08;;;;;;;0.98;0.95;;;15.70;99.90;;;;;;5013950;28;20026;-80
2023/09/30 08:26:35;;;;;;;0.00;0.00;;;15.80;99.90;;;;;;5014118;28;20482;-79
2023/09/30 08:29:01;;;;;;;0.15;0.15;;;16.00;99.90;;;;;;5014089;28;20395;-80
2023/09/30 08:31:27;;;;;;;2.17;1.55;;;16.20;99.90;;;;;;5012958;28;20036;-79
2023/09/30 08:33:52;;;;;;;1.52;1.45;;;16.60;99.90;;;;;;5014182;28;20109;-77
2023/09/30 08:36:18;;;;;;;0.93;0.65;;;16.60;99.90;;;;;;5013771;28;20478;-79
2023/09/30 08:38:44;;;;;;;0.00;0.00;;;16.50;99.90;;;;;;5013798;28;20113;-80
2023/09/30 08:41:15;;;;;;;0.30;0.30;;;16.80;99.90;;;;;;5013796;28;20026;-79
2023/09/30 08:43:41;;;;;;;3.30;1.70;;;16.20;99.90;;;;;;5013944;28;20109;-79
2023/09/30 08:46:08;;;;;;;2.05;0.65;;;16.50;99.90;;;;;;5013508;28;20044;-79
2023/09/30 08:48:34;;;;;;;0.45;0.45;;;16.40;99.90;;;;;;5013352;28;20121;-78
2023/09/30 08:51:01;;;;;;;1.85;0.90;;;16.30;99.90;;;;;;5013543;28;20030;-79
2023/09/30 08:53:29;;;;;;;18.35;5.50;;;16.20;99.90;;;;;;5010561;28;20143;-79
2023/09/30 08:55:58;;;;;;;0.03;0.03;;;16.00;99.90;;;;;;5013788;28;20056;-79
2023/09/30 08:58:28;;;;;;;6.07;1.95;;;16.10;99.90;;;;;;5013453;28;20467;-79
2023/09/30 09:00:56;;;;;;;1.88;1.30;;;16.20;99.90;;;;;;5012436;28;20037;-79
2023/09/30 09:03:22;;;;;;;1.40;1.30;;;16.30;99.90;;;;;;5027995;28;20026;-79
2023/09/30 09:05:57;;;;;;;16.70;4.38;;;16.60;99.90;;;;;;5013690;28;20044;-79
2023/09/30 09:08:26;;;;;;;19.60;4.60;;;16.80;99.90;;;;;;5013104;28;20044;-79
2023/09/30 09:10:57;;;;;;;0.45;0.40;;;16.70;99.90;;;;;;5007822;28;20513;-79
2023/09/30 09:13:27;;;;;;;2.38;1.95;;;16.60;99.90;;;;;;5013235;28;20048;-79
2023/09/30 09:16:09;;;;;;;3.03;1.77;;;16.90;99.90;;;;;;5013229;28;20181;-78
2023/09/30 09:18:35;;;;;;;14.13;4.10;;;17.00;99.90;;;;;;5012533;28;20034;-79
2023/09/30 09:21:14;;;;;;;0.00;0.00;;;17.00;99.90;;;;;;5008717;28;20125;-79
2023/09/30 09:23:49;;;;;;;0.00;0.00;;;17.30;99.90;;;;;;5009601;28;20041;-78
2023/09/30 09:26:26;;;;;;;11.73;2.72;;;17.50;99.90;;;;;;5002661;28;20046;-78
2023/09/30 09:29:03;;;;;;;6.15;1.92;;;17.50;99.90;;;;;;5013213;28;20068;-76
2023/09/30 09:31:36;;;;;;;0.08;0.08;;;17.50;99.90;;;;;;5013159;28;20052;-78
2023/09/30 09:34:14;;;;;;;3.60;2.45;;;17.30;99.90;;;;;;5012871;28;20079;-76
2023/09/30 09:36:45;;;;;;;5.32;0.40;;;17.90;99.90;;;;;;5012581;28;20033;-76
2023/09/30 09:39:16;;;;;;;0.80;0.80;;;18.20;99.90;;;;;;5012591;28;20034;-76
2023/09/30 09:41:52;;;;;;;7.78;2.13;;;18.10;99.90;;;;;;5012610;28;20034;-77
2023/09/30 09:44:21;;;;;;;5.38;1.58;;;18.30;99.90;;;;;;5012202;28;20073;-77
2023/09/30 09:46:48;;;;;;;4.85;1.77;;;18.60;99.90;;;;;;5012993;28;20060;-76
2023/09/30 09:49:17;;;;;;;1.17;1.08;;;18.30;99.90;;;;;;5012572;28;20018;-76
2023/09/30 09:51:45;;;;;;;0.40;0.40;;;18.10;99.90;;;;;;5012288;28;20022;-76
2023/09/30 09:54:12;;;;;;;0.20;0.20;;;18.00;99.90;;;;;;5007733;28;20025;-77
2023/09/30 09:56:39;;;;;;;0.80;0.80;;;18.20;99.90;;;;;;5011082;28;20030;-76
2023/09/30 09:59:06;;;;;;;16.08;2.58;;;17.90;99.90;;;;;;5012486;28;20030;-76
2023/09/30 10:01:35;;;;;;;3.38;0.57;;;18.30;99.90;;;;;;5011666;28;20026;-76
2023/09/30 10:04:01;;;;;;;10.40;3.08;;;18.40;99.90;;;;;;4998510;28;20026;-77
2023/09/30 10:06:28;;;;;;;3.92;1.90;;;18.30;99.90;;;;;;5012634;28;20387;-76
2023/09/30 10:08:57;;;;;;;1.20;0.52;;;18.40;99.90;;;;;;5012157;28;20022;-76
2023/09/30 10:11:23;;;;;;;0.00;0.00;;;18.80;99.90;;;;;;5012287;28;20037;-76
2023/09/30 10:13:53;;;;;;;5.50;1.80;;;19.10;99.90;;;;;;5013030;28;20048;-77
2023/09/30 10:16:37;;;;;;;8.23;1.98;;;19.10;99.90;;;;;;5013108;28;20065;-77
2023/09/30 10:19:09;;;;;;;0.13;0.13;;;19.00;99.90;;;;;;5012785;28;20168;-77
2023/09/30 10:21:35;;;;;;;2.40;1.27;;;19.10;99.90;;;;;;5013106;28;20493;-77
2023/09/30 10:24:23;;;;;;;0.00;0.00;;;19.30;99.90;;;;;;5013073;28;20025;-77
2023/09/30 10:27:32;;;;;;;1.38;1.10;;;19.40;99.90;;;;;;5013052;28;20109;-77
2023/09/30 10:29:58;;;;;;;0.65;0.65;;;19.60;99.90;;;;;;5007113;28;20048;-76
2023/09/30 10:32:50;;;;;;;11.55;3.70;;;19.60;99.90;;;;;;5012479;28;20018;-73
2023/09/30 10:35:31;;;;;;;0.00;0.00;;;19.50;99.90;;;;;;5012097;28;20065;-73
2023/09/30 10:38:22;;;;;;;0.70;0.70;;;19.60;99.90;;;;;;5012984;28;20030;-73
2023/09/30 10:40:51;;;;;;;7.22;2.08;;;19.90;99.90;;;;;;5011070;28;20034;-73
2023/09/30 10:43:32;;;;;;;0.00;0.00;;;19.70;99.90;;;;;;5012801;28;20040;-73
2023/09/30 10:45:59;;;;;;;2.33;1.10;;;20.20;99.90;;;;;;5008224;28;20390;-74
2023/09/30 10:48:25;;;;;;;1.20;1.05;;;20.50;99.90;;;;;;5011570;28;20361;-77
2023/09/30 10:50:51;;;;;;;1.90;1.55;;;20.50;99.90;;;;;;5011983;28;20109;-77
2023/09/30 10:53:18;;;;;;;2.95;0.85;;;20.40;99.90;;;;;;5011473;28;20044;-78
2023/09/30 10:55:54;;;;;;;1.15;0.70;;;20.50;99.90;;;;;;5012321;28;20042;-79
2023/09/30 10:58:20;;;;;;;5.18;1.08;;;20.80;99.90;;;;;;5012495;28;20034;-79
2023/09/30 11:00:55;;;;;;;0.00;0.00;;;20.90;99.90;;;;;;5023109;28;20073;-79
2023/09/30 11:03:21;;;;;;;4.95;0.90;;;21.30;99.90;;;;;;4999503;28;20021;-78
2023/09/30 11:05:48;;;;;;;10.48;0.75;;;21.20;99.90;;;;;;5010451;28;20073;-79
2023/09/30 11:08:17;;;;;;;1.15;0.98;;;21.40;99.90;;;;;;5010043;28;20018;-79
2023/09/30 11:10:50;;;;;;;7.03;1.35;;;20.90;99.90;;;;;;5011172;28;20033;-78
2023/09/30 11:13:17;;;;;;;1.55;0.55;;;21.50;99.90;;;;;;5012490;28;20044;-79
2023/09/30 11:15:44;;;;;;;2.60;1.83;;;21.20;99.90;;;;;;5011073;28;20490;-78
2023/09/30 11:18:17;;;;;;;4.47;0.57;;;20.50;99.90;;;;;;5012005;28;20522;-79
2023/09/30 11:20:44;;;;;;;1.10;0.70;;;20.20;99.90;;;;;;5012199;28;20030;-79
2023/09/30 11:23:11;;;;;;;3.92;1.02;;;21.20;99.90;;;;;;5022512;28;20029;-79
2023/09/30 11:25:39;;;;;;;0.38;0.38;;;22.00;99.90;;;;;;5032758;28;20405;-79
2023/09/30 11:28:18;;;;;;;0.00;0.00;;;21.70;99.90;;;;;;5035933;28;20056;-79
2023/09/30 11:30:57;;;;;;;3.20;0.85;;;21.60;99.90;;;;;;5017939;28;20041;-79
2023/09/30 11:33:24;;;;;;;0.63;0.63;;;21.90;99.90;;;;;;5029753;28;20071;-79
2023/09/30 11:36:05;;;;;;;0.00;0.00;;;22.10;99.90;;;;;;5035387;28;20516;-79
2023/09/30 11:38:32;;;;;;;1.10;0.70;;;22.50;99.90;;;;;;5035777;28;20513;-79
2023/09/30 11:41:02;;;;;;;0.93;0.40;;;22.40;99.90;;;;;;5035745;28;20029;-79
2023/09/30 11:43:29;;;;;;;3.30;0.70;;;23.10;99.90;;;;;;5035818;28;20381;-79
2023/09/30 11:46:11;;;;;;;0.00;0.00;;;22.80;99.90;;;;;;5035355;28;20124;-79
2023/09/30 11:48:38;;;;;;;3.50;0.50;;;21.90;99.90;;;;;;5035477;28;20033;-79
2023/09/30 11:51:04;;;;;;;0.00;0.00;;;21.50;99.90;;;;;;5035708;28;20489;-78
2023/09/30 11:53:31;;;;;;;2.65;0.35;;;22.30;99.90;;;;;;5034206;28;20466;-79
2023/09/30 11:56:02;;;;;;;8.90;2.45;;;21.80;99.90;;;;;;5024870;28;20390;-79
2023/09/30 11:58:29;;;;;;;0.35;0.03;;;21.50;99.90;;;;;;5015354;28;20080;-79
2023/09/30 12:00:59;;;;;;;2.38;2.17;;;21.40;99.90;;;;;;5015359;28;20076;-78
2023/09/30 12:03:27;;;;;;;13.68;1.65;;;21.40;99.90;;;;;;5015625;28;20034;-78
2023/09/30 12:05:55;;;;;;;0.00;0.00;;;20.70;99.90;;;;;;5015652;28;20044;-79
2023/09/30 12:08:24;;;;;;;0.85;0.75;;;21.20;99.90;;;;;;5015292;28;20043;-79
2023/09/30 12:10:50;;;;;;;0.00;0.00;;;20.40;99.90;;;;;;5015458;28;20034;-78
2023/09/30 12:13:16;;;;;;;0.20;0.20;;;21.20;99.90;;;;;;5015593;28;20088;-78
2023/09/30 12:15:44;;;;;;;2.90;0.45;;;22.20;99.90;;;;;;5014860;28;20037;-79
2023/09/30 12:18:13;;;;;;;7.47;2.80;;;22.30;99.60;;;;;;5030243;28;20080;-79
2023/09/30 12:20:41;;;;;;;1.63;1.52;;;21.60;99.90;;;;;;5030346;28;20026;-78
2023/09/30 12:23:07;;;;;;;1.55;1.15;;;21.50;99.90;;;;;;5015358;28;20022;-78
2023/09/30 12:25:33;;;;;;;2.63;0.45;;;22.50;99.90;;;;;;5014913;28;20105;-79
2023/09/30 12:28:00;;;;;;;0.80;0.75;;;21.90;99.90;;;;;;5015224;28;20030;-78
2023/09/30 12:30:26;;;;;;;0.75;0.43;;;21.60;99.90;;;;;;5014753;28;20030;-78
2023/09/30 12:32:54;;;;;;;0.52;0.52;;;22.20;99.90;;;;;;5014804;28;20530;-78
2023/09/30 12:35:21;;;;;;;0.10;0.10;;;22.60;99.50;;;;;;5015225;28;20429;-78
2023/09/30 12:37:47;;;;;;;2.17;0.52;;;23.40;99.00;;;;;;5013650;28;20461;-78
2023/09/30 12:40:16;;;;;;;0.00;0.00;;;24.30;97.20;;;;;;5015022;28;20034;-79
2023/09/30 12:42:44;;;;;;;10.50;0.68;;;24.10;96.50;;;;;;5029931;28;20076;-79
2023/09/30 12:45:11;;;;;;;0.28;0.28;;;23.70;96.00;;;;;;5014773;28;20057;-79
2023/09/30 12:47:36;;;;;;;0.52;0.45;;;22.90;97.00;;;;;;5014422;28;20367;-79
2023/09/30 12:50:03;;;;;;;0.00;0.00;;;22.90;97.30;;;;;;5014689;28;20029;-79